11:29
Airports
History
Links
Donate
Help keep this website running!
PayPal
Bitcoin
This page is community maintained. The information is intended for PC simulator navigation or reference.
Always use approved charts for navigation.
LIMG
ALBENGA
ALBENGA (LIMG)
Villanova d'Albenga, Liguria, Italy (17038)
(U)
Lat/Lng:44° 3' 2.08" N / 8° 7' 38.63" E
44.050577 / 8.127396
Elevation:148'ft / 45mMSL
ID / ICAO:LIMG
Runways:1
Longest:09-27
Asphalt 1,432m / 4,699ft
METAR10:50 GMT 2017-12-11
Altimeter: 29.32
Visibility: 5.0 statute miles
Wind: 14 knots (from 220°)
Temp: 15°c / 59°f
Humidity: 82.2%

METAR: LIMG 111050Z 22014G37KT 8000 OVC035 15/12 Q0993

(Powered by phpweather)
Airport Radio Frequencies
Tower: 123.85
Nearby VORs <50NM
Nearby NDBs
Runway 09 / 27
Dimensions:1432.3 x 45.1m 4699' x 148'ft
Surface:Asphalt
Edge Lights:Low intensity
Runway 09 [A]Runway 27 [B]
Heading:092°TH 272°TH
Lat:
Lng:
44° 3' 3.26"N
8° 7' 6.54"E
44° 3' 0.89"N
8° 8' 10.71"E
User Notes and Comments
44° 3' 2.08" N / 8° 7' 38.63" E
Distance To
Airport ID:
Nearby Airports
(C) Heliport Monaco 41.7 NM
LNMC WSW 237°
(U) LEVALDIGI 42.4 NM
LIMZ NW 324°
(C) Genova Sestri 43.3 NM
LIMJ ( WX ) NE 54°
(C) Nice/Cote d'Azur 52.9 NM
LFMN ( WX ) WSW 239°
4 Novi Ligure 60.0 NM
LIMR NNE 32°
4 Alessandria 65.2 NM
LILA NNE 22°
(C) Mandelieu 68.0 NM
LFMD ( WX ) WSW 239°
VFR Chart
Flight Planning at SkyVector.com